Time;durP1;ratioP1;P1;durP2;ratioP2;P2;SDS_P1;SDS_P2;PMS_P1;PMS_P2;Temp;Humidity;BMP_temperature;BMP_pressure;BME280_temperature;BME280_humidity;BME280_pressure;Samples;Min_cycle;Max_cycle;Signal;HPM_P1;HPM_P2
2023/03/25 00:00:58;;;;;;;14.73;3.00;;;9.80;99.90;;;;;;5105347;27;20482;-65
2023/03/25 00:03:37;;;;;;;11.60;2.08;;;9.70;99.90;;;;;;5126576;27;20035;-63
2023/03/25 00:06:05;;;;;;;12.98;2.50;;;9.70;99.90;;;;;;5104427;27;20081;-63
2023/03/25 00:08:31;;;;;;;12.25;2.83;;;9.60;99.90;;;;;;5111730;27;20059;-65
2023/03/25 00:10:58;;;;;;;15.23;2.67;;;9.60;99.90;;;;;;5103435;28;20044;-66
2023/03/25 00:13:25;;;;;;;19.02;2.35;;;9.70;99.90;;;;;;5098035;27;20035;-64
2023/03/25 00:15:57;;;;;;;11.98;2.30;;;9.70;99.90;;;;;;5126277;27;20126;-65
2023/03/25 00:18:28;;;;;;;18.58;2.80;;;9.70;99.90;;;;;;5102163;27;20509;-66
2023/03/25 00:20:55;;;;;;;15.23;2.60;;;9.60;99.90;;;;;;5128236;27;20035;-66
2023/03/25 00:23:21;;;;;;;15.35;2.80;;;9.60;99.90;;;;;;5103589;27;20076;-63
2023/03/25 00:25:48;;;;;;;12.07;2.75;;;9.60;99.90;;;;;;5104772;27;20439;-65
2023/03/25 00:28:15;;;;;;;17.70;2.90;;;9.60;99.90;;;;;;5105931;27;20450;-65
2023/03/25 00:30:42;;;;;;;13.63;2.85;;;9.60;99.90;;;;;;5102855;27;20062;-65
2023/03/25 00:33:12;;;;;;;14.88;2.75;;;9.50;99.90;;;;;;5107523;27;20444;-66
2023/03/25 00:35:43;;;;;;;13.38;2.58;;;9.50;99.90;;;;;;5110317;27;20085;-64
2023/03/25 00:38:13;;;;;;;16.03;3.10;;;9.40;99.90;;;;;;5103340;27;20042;-64
2023/03/25 00:40:39;;;;;;;11.88;2.85;;;9.30;99.90;;;;;;5090306;27;20464;-65
2023/03/25 00:43:06;;;;;;;14.40;3.30;;;9.20;99.90;;;;;;5103760;27;20043;-65
2023/03/25 00:45:33;;;;;;;14.85;3.28;;;9.20;99.90;;;;;;5109501;27;20039;-66
2023/03/25 00:47:58;;;;;;;12.52;2.53;;;9.10;99.90;;;;;;5106479;27;20035;-63
2023/03/25 00:50:25;;;;;;;17.88;2.70;;;9.10;99.90;;;;;;5110608;27;20477;-63
2023/03/25 00:52:52;;;;;;;10.05;2.58;;;9.10;99.90;;;;;;5107114;28;20465;-63
2023/03/25 00:55:18;;;;;;;16.75;3.22;;;9.10;99.90;;;;;;5109376;27;20424;-64
2023/03/25 00:57:44;;;;;;;13.57;3.08;;;9.00;99.90;;;;;;5109437;27;20470;-64
2023/03/25 01:00:12;;;;;;;15.10;3.25;;;9.00;99.90;;;;;;5105094;27;20047;-65
2023/03/25 01:02:38;;;;;;;11.95;2.95;;;9.00;99.90;;;;;;5102786;28;20393;-66
2023/03/25 01:05:05;;;;;;;14.35;3.00;;;9.00;99.90;;;;;;5094975;28;20118;-65
2023/03/25 01:07:31;;;;;;;16.55;4.00;;;9.00;99.90;;;;;;5108951;27;20038;-65
2023/03/25 01:09:57;;;;;;;15.30;3.20;;;8.90;99.90;;;;;;5110931;27;20039;-65
2023/03/25 01:12:24;;;;;;;14.43;3.22;;;8.90;99.90;;;;;;5127686;27;20031;-66
2023/03/25 01:14:50;;;;;;;20.55;4.15;;;8.90;99.90;;;;;;5107523;27;20047;-64
2023/03/25 01:17:15;;;;;;;17.55;3.53;;;8.90;99.90;;;;;;5102395;28;20044;-65
2023/03/25 01:19:41;;;;;;;19.40;3.90;;;8.80;99.90;;;;;;5096141;28;20075;-66
2023/03/25 01:22:06;;;;;;;22.55;4.05;;;8.90;99.90;;;;;;5105516;27;20299;-64
2023/03/25 01:24:32;;;;;;;17.65;4.07;;;9.00;99.90;;;;;;5110144;28;20082;-64
2023/03/25 01:26:58;;;;;;;14.55;3.13;;;9.00;99.90;;;;;;5109158;27;20078;-65
2023/03/25 01:29:23;;;;;;;15.15;3.85;;;8.90;99.90;;;;;;5104563;28;20066;-64
2023/03/25 01:31:49;;;;;;;19.88;3.60;;;8.90;99.90;;;;;;5087762;27;20112;-64
2023/03/25 01:34:15;;;;;;;19.10;3.88;;;8.90;99.90;;;;;;5105404;28;20050;-65
2023/03/25 01:36:45;;;;;;;17.33;4.07;;;8.90;99.90;;;;;;5113896;28;20180;-65
2023/03/25 01:39:15;;;;;;;19.23;4.05;;;8.80;99.90;;;;;;5106876;28;20057;-65
2023/03/25 01:41:42;;;;;;;20.30;4.03;;;8.70;99.90;;;;;;5109012;28;20047;-65
2023/03/25 01:44:29;;;;;;;23.00;4.40;;;8.70;99.90;;;;;;5105635;27;20047;-65
2023/03/25 01:47:00;;;;;;;18.55;4.78;;;8.70;99.90;;;;;;5111553;27;20047;-66
2023/03/25 01:49:38;;;;;;;23.33;3.75;;;8.60;99.90;;;;;;5103322;27;20048;-64
2023/03/25 01:52:09;;;;;;;18.33;4.28;;;8.60;99.90;;;;;;5120046;27;20047;-65
2023/03/25 01:54:37;;;;;;;22.67;3.78;;;8.60;99.90;;;;;;5094252;27;20039;-65
2023/03/25 01:57:04;;;;;;;21.15;4.97;;;8.60;99.90;;;;;;5107198;27;20042;-64
2023/03/25 01:59:29;;;;;;;23.48;4.68;;;8.50;99.90;;;;;;5109028;28;20431;-65
2023/03/25 02:02:00;;;;;;;17.83;4.22;;;8.50;99.90;;;;;;5110803;27;20042;-65
2023/03/25 02:04:57;;;;;;;24.08;4.93;;;8.50;99.90;;;;;;5096935;27;20084;-65
2023/03/25 02:07:29;;;;;;;24.67;5.05;;;8.40;99.90;;;;;;5112241;27;20050;-64
2023/03/25 02:09:59;;;;;;;24.85;4.40;;;8.40;99.90;;;;;;5097851;27;20072;-65
2023/03/25 02:12:25;;;;;;;20.23;4.82;;;8.40;99.90;;;;;;5112182;27;20047;-64
2023/03/25 02:14:50;;;;;;;21.50;4.03;;;8.40;99.90;;;;;;5109843;27;20458;-64
2023/03/25 02:17:46;;;;;;;22.35;4.63;;;8.40;99.90;;;;;;5106357;27;20043;-66
2023/03/25 02:20:32;;;;;;;18.70;3.88;;;8.40;99.90;;;;;;5108793;27;20490;-65
2023/03/25 02:23:32;;;;;;;22.10;4.70;;;8.30;99.90;;;;;;5105017;27;20050;-65
2023/03/25 02:26:09;;;;;;;24.13;4.55;;;8.30;99.90;;;;;;5125088;27;20477;-66
2023/03/25 02:29:06;;;;;;;26.45;4.57;;;8.30;99.90;;;;;;5100756;27;20039;-66
2023/03/25 02:31:50;;;;;;;27.35;4.70;;;8.50;99.90;;;;;;5106680;27;20040;-64
2023/03/25 02:34:32;;;;;;;29.60;4.47;;;8.50;99.90;;;;;;5106186;27;20415;-65
2023/03/25 02:37:21;;;;;;;25.60;4.83;;;8.50;99.90;;;;;;5106469;27;20761;-66
2023/03/25 02:40:00;;;;;;;25.83;4.45;;;8.50;99.90;;;;;;5112996;27;20122;-65
2023/03/25 02:42:35;;;;;;;26.63;4.80;;;8.50;99.90;;;;;;5104810;27;20039;-66
2023/03/25 02:45:06;;;;;;;24.52;4.75;;;8.50;99.90;;;;;;5106645;27;20392;-64
2023/03/25 02:47:36;;;;;;;26.80;5.28;;;8.50;99.90;;;;;;5101110;27;20042;-66
2023/03/25 02:50:14;;;;;;;21.48;4.40;;;8.50;99.90;;;;;;5113483;27;20039;-66
2023/03/25 02:52:45;;;;;;;18.10;3.83;;;8.50;99.90;;;;;;5100060;27;20044;-65
2023/03/25 02:55:15;;;;;;;22.60;4.47;;;8.60;99.90;;;;;;5112449;27;20065;-64
2023/03/25 02:57:44;;;;;;;19.77;3.58;;;8.50;99.90;;;;;;5102454;27;20031;-66
2023/03/25 03:00:15;;;;;;;20.65;4.03;;;8.60;99.90;;;;;;5108069;27;20046;-67
2023/03/25 03:02:58;;;;;;;23.63;4.40;;;8.60;99.90;;;;;;5103033;27;20035;-66
2023/03/25 03:05:28;;;;;;;26.85;5.20;;;8.60;99.90;;;;;;5112294;27;20413;-65
2023/03/25 03:08:18;;;;;;;22.88;4.30;;;8.60;99.90;;;;;;5103077;27;20122;-65
2023/03/25 03:11:05;;;;;;;20.25;3.97;;;8.60;99.90;;;;;;5114046;27;20535;-64
2023/03/25 03:14:09;;;;;;;22.48;4.50;;;8.60;99.90;;;;;;5110689;27;21360;-65
2023/03/25 03:17:02;;;;;;;20.95;4.07;;;8.60;99.90;;;;;;5107555;27;20160;-64
2023/03/25 03:19:46;;;;;;;;;;;8.60;99.90;;;;;;5106577;27;20523;-65
2023/03/25 03:22:37;;;;;;;22.92;3.92;;;8.60;99.90;;;;;;5109432;27;19919;-66
2023/03/25 03:25:11;;;;;;;24.27;4.35;;;8.60;99.90;;;;;;5108854;27;20046;-63
2023/03/25 03:28:00;;;;;;;19.48;4.35;;;8.60;99.90;;;;;;5107546;27;20039;-65
2023/03/25 03:30:45;;;;;;;15.32;4.10;;;8.60;99.90;;;;;;5084634;27;20078;-68
2023/03/25 03:33:24;;;;;;;15.77;4.60;;;8.60;99.90;;;;;;5109842;27;20103;-66
2023/03/25 03:35:56;;;;;;;18.58;4.30;;;8.60;99.90;;;;;;5106851;27;20110;-66
2023/03/25 03:38:26;;;;;;;16.58;3.92;;;8.60;99.90;;;;;;5109040;27;20054;-65
2023/03/25 03:40:56;;;;;;;24.35;4.43;;;8.60;99.90;;;;;;5118920;27;20031;-65
2023/03/25 03:43:36;;;;;;;20.80;4.05;;;8.60;99.90;;;;;;5106387;27;20039;-64
2023/03/25 03:46:05;;;;;;;23.77;5.10;;;8.60;99.90;;;;;;5102591;27;20044;-64
2023/03/25 03:48:48;;;;;;;20.38;5.13;;;8.50;99.90;;;;;;5123435;27;20181;-65
2023/03/25 03:51:23;;;;;;;30.65;5.07;;;8.50;99.90;;;;;;5105514;27;20058;-64
2023/03/25 03:53:59;;;;;;;19.05;5.25;;;8.50;99.90;;;;;;5096838;27;20280;-63
2023/03/25 03:56:35;;;;;;;18.88;4.85;;;8.50;99.90;;;;;;5105209;27;20039;-65
2023/03/25 03:59:28;;;;;;;19.00;5.20;;;8.50;99.90;;;;;;5124051;27;20528;-65
2023/03/25 04:01:59;;;;;;;25.05;5.68;;;8.50;99.90;;;;;;5099333;27;20100;-66
2023/03/25 04:04:25;;;;;;;26.27;5.35;;;8.50;99.90;;;;;;5107861;27;20043;-66
2023/03/25 04:07:00;;;;;;;24.75;5.57;;;8.50;99.90;;;;;;5105027;27;20039;-64
2023/03/25 04:09:55;;;;;;;22.38;5.85;;;8.50;99.90;;;;;;5130197;27;20049;-65
2023/03/25 04:12:24;;;;;;;24.63;4.75;;;8.50;99.90;;;;;;5107984;27;20422;-65
2023/03/25 04:14:49;;;;;;;23.23;5.57;;;8.50;99.90;;;;;;5110246;27;20153;-65
2023/03/25 04:17:16;;;;;;;22.20;5.05;;;8.50;99.90;;;;;;5111495;27;20562;-65
2023/03/25 04:19:47;;;;;;;26.65;6.70;;;8.50;99.90;;;;;;5104124;27;20077;-64
2023/03/25 04:22:17;;;;;;;21.17;5.10;;;8.60;99.90;;;;;;5093490;28;20452;-66
2023/03/25 04:24:43;;;;;;;22.05;5.15;;;8.60;99.90;;;;;;5107838;27;20043;-65
2023/03/25 04:27:12;;;;;;;23.42;4.95;;;8.60;99.90;;;;;;5108034;27;20077;-66
2023/03/25 04:29:42;;;;;;;19.90;4.50;;;8.60;99.90;;;;;;5106973;27;20031;-66
2023/03/25 04:32:10;;;;;;;18.92;4.75;;;8.50;99.90;;;;;;5105661;27;20593;-66
2023/03/25 04:34:37;;;;;;;25.17;5.55;;;8.50;99.90;;;;;;5107159;27;20623;-66
2023/03/25 04:37:03;;;;;;;20.52;4.63;;;8.50;99.90;;;;;;5109258;27;20046;-66
2023/03/25 04:39:31;;;;;;;25.20;5.63;;;8.50;99.90;;;;;;5103371;27;20038;-65
2023/03/25 04:42:00;;;;;;;22.27;5.00;;;8.40;99.90;;;;;;5115645;27;20490;-64
2023/03/25 04:44:27;;;;;;;21.75;5.10;;;8.40;99.90;;;;;;5103127;27;20043;-65
2023/03/25 04:46:54;;;;;;;27.02;4.55;;;8.40;99.90;;;;;;5107551;27;21742;-65
2023/03/25 04:49:22;;;;;;;22.17;4.78;;;8.40;99.90;;;;;;5103057;27;20062;-65
2023/03/25 04:51:52;;;;;;;22.52;5.60;;;8.40;99.90;;;;;;5094242;27;20050;-66
2023/03/25 04:54:19;;;;;;;25.58;5.20;;;8.40;99.90;;;;;;5121988;27;20047;-64
2023/03/25 04:56:49;;;;;;;22.48;4.97;;;8.40;99.90;;;;;;5108194;27;20034;-66
2023/03/25 04:59:17;;;;;;;27.13;5.50;;;8.50;99.90;;;;;;5108245;27;20047;-65
2023/03/25 05:01:44;;;;;;;22.00;4.93;;;8.50;99.90;;;;;;5096939;28;20385;-66
2023/03/25 05:04:12;;;;;;;20.48;4.57;;;8.50;99.90;;;;;;5106435;28;20036;-66
2023/03/25 05:06:43;;;;;;;18.05;4.57;;;8.40;99.90;;;;;;5102465;27;20039;-64
2023/03/25 05:09:14;;;;;;;19.20;4.63;;;8.50;99.90;;;;;;5097521;28;20435;-65
2023/03/25 05:11:41;;;;;;;24.70;5.10;;;8.40;99.90;;;;;;5127216;27;20064;-65
2023/03/25 05:14:08;;;;;;;27.25;4.90;;;8.50;99.90;;;;;;5101924;28;20541;-67
2023/03/25 05:16:34;;;;;;;25.23;4.97;;;8.40;99.90;;;;;;5105383;27;20050;-65
2023/03/25 05:19:02;;;;;;;21.33;5.85;;;8.40;99.90;;;;;;5109016;28;20466;-65
2023/03/25 05:21:30;;;;;;;25.15;5.68;;;8.40;99.90;;;;;;5113107;27;20050;-64
2023/03/25 05:23:56;;;;;;;17.50;5.00;;;8.50;99.90;;;;;;5107876;28;20469;-66
2023/03/25 05:26:23;;;;;;;22.70;5.70;;;8.50;99.90;;;;;;5107168;27;20427;-66
2023/03/25 05:28:50;;;;;;;24.40;6.05;;;8.30;99.90;;;;;;5124796;28;20130;-66
2023/03/25 05:31:16;;;;;;;22.08;5.53;;;8.20;99.90;;;;;;5097177;27;20390;-64
2023/03/25 05:33:42;;;;;;;18.75;5.55;;;8.30;99.90;;;;;;5084681;28;20115;-65
2023/03/25 05:36:09;;;;;;;22.05;6.25;;;8.30;99.90;;;;;;5118344;27;20134;-66
2023/03/25 05:38:36;;;;;;;19.58;5.47;;;8.20;99.90;;;;;;5100208;28;20482;-66
2023/03/25 05:41:02;;;;;;;22.05;6.60;;;8.30;99.90;;;;;;5090170;27;20043;-65
2023/03/25 05:43:34;;;;;;;25.85;5.57;;;8.20;99.90;;;;;;5112940;27;20043;-64
2023/03/25 05:46:00;;;;;;;26.67;6.22;;;8.30;99.90;;;;;;5113126;27;20059;-65
2023/03/25 05:48:25;;;;;;;22.67;5.90;;;8.30;99.90;;;;;;5111990;27;20046;-64
2023/03/25 05:50:55;;;;;;;27.20;6.35;;;8.30;99.90;;;;;;5113366;27;20035;-65
2023/03/25 05:53:21;;;;;;;25.67;5.90;;;8.30;99.90;;;;;;5110990;27;20039;-67
2023/03/25 05:55:49;;;;;;;29.50;5.93;;;8.20;99.90;;;;;;5110842;27;20043;-67
2023/03/25 05:58:16;;;;;;;26.60;5.32;;;8.30;99.90;;;;;;5109242;27;20462;-65
2023/03/25 06:00:42;;;;;;;29.55;5.40;;;8.30;99.90;;;;;;5099343;28;20062;-67
2023/03/25 06:03:08;;;;;;;19.08;4.97;;;8.30;99.90;;;;;;5113427;27;20366;-66
2023/03/25 06:05:33;;;;;;;21.77;5.32;;;8.20;99.90;;;;;;5106359;27;20541;-66
2023/03/25 06:08:00;;;;;;;27.58;4.63;;;8.20;99.90;;;;;;5111782;27;20047;-65
2023/03/25 06:10:26;;;;;;;20.00;4.50;;;8.30;99.90;;;;;;5110429;27;20093;-66
2023/03/25 06:12:52;;;;;;;15.60;3.88;;;8.30;99.90;;;;;;5105780;27;20051;-67
2023/03/25 06:15:27;;;;;;;26.30;5.72;;;8.30;99.90;;;;;;5111621;27;20370;-65
2023/03/25 06:17:57;;;;;;;16.40;4.55;;;8.30;99.90;;;;;;5111432;27;20045;-66
2023/03/25 06:20:26;;;;;;;17.80;3.47;;;8.40;99.90;;;;;;5105147;27;20046;-66
2023/03/25 06:22:51;;;;;;;23.35;4.15;;;8.40;99.90;;;;;;5107791;27;20112;-65
2023/03/25 06:25:19;;;;;;;18.40;4.10;;;8.30;99.90;;;;;;5110458;27;20154;-67
2023/03/25 06:27:47;;;;;;;21.65;3.75;;;8.40;99.90;;;;;;5125980;27;20126;-66
2023/03/25 06:30:18;;;;;;;25.73;4.30;;;8.40;99.90;;;;;;5115051;27;20046;-65
2023/03/25 06:32:49;;;;;;;18.35;4.78;;;8.40;99.90;;;;;;5101607;27;20367;-67
2023/03/25 06:35:18;;;;;;;25.25;3.90;;;8.40;99.90;;;;;;5112442;27;20039;-65
2023/03/25 06:37:47;;;;;;;21.00;3.95;;;8.40;99.90;;;;;;5109439;27;20498;-63
2023/03/25 06:40:13;;;;;;;21.90;4.22;;;8.40;99.90;;;;;;5111015;27;20055;-66
2023/03/25 06:42:40;;;;;;;24.38;3.95;;;8.50;99.90;;;;;;5102718;27;20043;-66
2023/03/25 06:45:06;;;;;;;25.50;4.30;;;8.60;99.90;;;;;;5110166;27;20332;-66
2023/03/25 06:47:33;;;;;;;25.65;4.38;;;8.80;99.90;;;;;;5107505;27;20047;-65
2023/03/25 06:49:58;;;;;;;22.33;3.78;;;8.90;99.90;;;;;;5115827;27;20118;-66
2023/03/25 06:52:24;;;;;;;22.50;4.40;;;8.80;99.90;;;;;;5108587;27;20135;-64
2023/03/25 06:54:50;;;;;;;24.30;4.43;;;8.90;99.90;;;;;;5131071;27;20052;-65
2023/03/25 06:57:15;;;;;;;22.80;4.85;;;9.00;99.90;;;;;;5108827;27;20031;-65
2023/03/25 06:59:42;;;;;;;25.33;4.75;;;9.10;99.90;;;;;;5100671;28;20065;-67
2023/03/25 07:02:13;;;;;;;21.58;4.65;;;9.10;99.90;;;;;;5106649;27;20476;-66
2023/03/25 07:04:39;;;;;;;24.33;4.53;;;9.20;99.90;;;;;;5113412;27;20075;-65
2023/03/25 07:07:05;;;;;;;29.83;4.90;;;9.20;99.90;;;;;;5107112;27;20042;-65
2023/03/25 07:09:31;;;;;;;27.60;4.30;;;9.20;99.90;;;;;;5104533;27;20035;-65
2023/03/25 07:11:57;;;;;;;32.67;4.57;;;9.10;99.90;;;;;;5106206;27;20039;-65
2023/03/25 07:14:22;;;;;;;31.20;4.95;;;9.10;99.90;;;;;;5110760;27;20122;-66
2023/03/25 07:16:48;;;;;;;27.52;5.15;;;9.10;99.90;;;;;;5110321;27;20095;-66
2023/03/25 07:19:14;;;;;;;30.10;4.55;;;9.00;99.90;;;;;;5101878;27;20482;-66
2023/03/25 07:21:39;;;;;;;26.65;5.22;;;8.90;99.90;;;;;;5119380;27;20027;-66
2023/03/25 07:24:05;;;;;;;28.35;5.32;;;8.80;99.90;;;;;;5106319;27;20491;-64
2023/03/25 07:26:31;;;;;;;30.02;4.95;;;8.50;99.90;;;;;;5099932;27;20557;-64
2023/03/25 07:28:56;;;;;;;26.27;5.07;;;8.40;99.90;;;;;;5103364;27;20040;-65
2023/03/25 07:31:22;;;;;;;33.58;5.55;;;8.40;99.90;;;;;;5108584;27;20035;-65
2023/03/25 07:33:47;;;;;;;25.42;4.63;;;8.30;99.90;;;;;;5097286;27;20092;-63
2023/03/25 07:36:13;;;;;;;25.98;4.68;;;8.30;99.90;;;;;;5099442;27;20111;-64
2023/03/25 07:38:39;;;;;;;29.65;4.25;;;8.40;99.90;;;;;;5102190;27;20394;-65
2023/03/25 07:41:12;;;;;;;27.48;4.25;;;8.40;99.90;;;;;;5102709;27;20092;-65
2023/03/25 07:43:38;;;;;;;21.23;3.90;;;8.50;99.90;;;;;;5108509;27;20035;-65
2023/03/25 07:46:04;;;;;;;23.52;3.78;;;8.60;99.90;;;;;;5106483;27;20074;-65
2023/03/25 07:48:30;;;;;;;24.38;4.05;;;8.70;99.90;;;;;;5106316;27;20096;-64
2023/03/25 07:50:55;;;;;;;22.02;3.92;;;8.80;99.90;;;;;;5115543;27;20419;-64
2023/03/25 07:53:21;;;;;;;25.05;4.25;;;8.70;99.90;;;;;;5108906;27;20412;-65
2023/03/25 07:55:49;;;;;;;35.55;4.70;;;8.70;99.90;;;;;;5108431;28;20063;-65
2023/03/25 07:58:16;;;;;;;29.67;4.60;;;8.60;99.90;;;;;;5097864;27;20489;-66
2023/03/25 08:00:42;;;;;;;33.38;4.55;;;8.70;99.90;;;;;;5123274;27;20039;-65
2023/03/25 08:03:10;;;;;;;30.67;4.38;;;8.60;99.90;;;;;;5105890;27;20043;-65
2023/03/25 08:05:36;;;;;;;33.45;5.72;;;8.60;99.90;;;;;;5102560;27;20035;-64
2023/03/25 08:08:04;;;;;;;26.77;5.03;;;8.70;99.90;;;;;;5101058;27;20075;-65
2023/03/25 08:10:30;;;;;;;23.65;4.32;;;8.70;99.90;;;;;;5101346;27;20457;-65
2023/03/25 08:12:56;;;;;;;30.35;5.07;;;8.80;99.90;;;;;;5103736;27;20035;-65
2023/03/25 08:15:25;;;;;;;29.67;4.72;;;8.70;99.90;;;;;;5106623;27;20401;-66
2023/03/25 08:17:52;;;;;;;26.48;4.95;;;8.80;99.90;;;;;;5104654;27;20130;-64
2023/03/25 08:20:18;;;;;;;29.15;4.30;;;8.80;99.90;;;;;;5124555;27;20458;-65
2023/03/25 08:22:44;;;;;;;23.60;5.13;;;8.80;99.90;;;;;;5099899;27;20053;-66
2023/03/25 08:25:10;;;;;;;29.75;4.03;;;8.80;99.90;;;;;;5105050;27;20170;-65
2023/03/25 08:27:37;;;;;;;21.27;4.50;;;9.00;99.90;;;;;;5104906;27;20519;-67
2023/03/25 08:30:03;;;;;;;30.73;4.53;;;9.00;99.90;;;;;;5102061;27;20039;-65
2023/03/25 08:32:30;;;;;;;26.75;4.78;;;9.00;99.90;;;;;;5099442;27;20118;-63
2023/03/25 08:34:56;;;;;;;29.92;5.05;;;9.10;99.90;;;;;;5099762;27;20046;-63
2023/03/25 08:37:24;;;;;;;33.53;5.07;;;9.30;99.90;;;;;;5101656;27;20035;-64
2023/03/25 08:39:54;;;;;;;32.38;4.22;;;9.40;99.90;;;;;;5101656;27;20135;-64
2023/03/25 08:42:19;;;;;;;32.58;5.35;;;9.30;99.90;;;;;;5122326;27;20039;-67
2023/03/25 08:44:45;;;;;;;31.05;5.05;;;9.30;99.90;;;;;;5101602;27;20050;-65
2023/03/25 08:47:11;;;;;;;33.03;4.97;;;9.20;99.90;;;;;;5103221;27;20072;-65
2023/03/25 08:49:37;;;;;;;26.30;4.50;;;9.20;99.90;;;;;;5103659;27;20455;-65
2023/03/25 08:52:06;;;;;;;32.45;5.03;;;9.20;99.90;;;;;;5104673;27;20126;-65
2023/03/25 08:54:32;;;;;;;26.50;4.28;;;9.30;99.90;;;;;;5102065;27;20061;-64
2023/03/25 08:56:57;;;;;;;26.75;4.60;;;9.30;99.90;;;;;;5103799;27;20028;-65
2023/03/25 08:59:23;;;;;;;24.50;5.25;;;9.30;99.90;;;;;;5103393;27;20413;-66
2023/03/25 09:01:49;;;;;;;28.50;4.72;;;9.20;99.90;;;;;;5103648;28;20035;-66
2023/03/25 09:04:15;;;;;;;25.05;4.40;;;9.20;99.90;;;;;;5103220;27;20627;-65
2023/03/25 09:06:40;;;;;;;25.17;4.22;;;9.30;99.90;;;;;;5102776;27;20039;-66
2023/03/25 09:09:09;;;;;;;27.05;4.90;;;9.40;99.90;;;;;;5108750;27;20042;-66
2023/03/25 09:11:35;;;;;;;25.15;4.38;;;9.40;99.90;;;;;;5100152;27;20067;-64
2023/03/25 09:14:04;;;;;;;21.63;4.10;;;9.50;99.90;;;;;;5099197;27;20108;-64
2023/03/25 09:16:33;;;;;;;21.73;3.55;;;9.50;99.90;;;;;;5122032;27;20198;-66
2023/03/25 09:18:59;;;;;;;22.45;3.88;;;9.70;99.90;;;;;;5118117;27;20409;-65
2023/03/25 09:21:25;;;;;;;21.67;3.83;;;9.90;99.90;;;;;;5097913;28;20055;-67
2023/03/25 09:23:51;;;;;;;26.33;4.13;;;10.00;99.90;;;;;;5103577;28;20031;-66
2023/03/25 09:26:17;;;;;;;21.25;4.28;;;9.80;99.90;;;;;;5091746;28;20158;-65
2023/03/25 09:28:42;;;;;;;19.40;4.00;;;9.70;99.90;;;;;;5090113;28;20070;-67
2023/03/25 09:31:08;;;;;;;24.42;4.43;;;9.70;99.90;;;;;;5110740;28;20043;-68
2023/03/25 09:33:34;;;;;;;18.10;3.78;;;9.70;99.90;;;;;;5101168;28;20042;-64
2023/03/25 09:36:01;;;;;;;22.15;3.92;;;9.60;99.90;;;;;;5102579;28;20053;-66
2023/03/25 09:38:26;;;;;;;21.23;3.80;;;9.50;99.90;;;;;;5108967;27;20054;-65
2023/03/25 09:40:52;;;;;;;23.08;4.28;;;9.50;99.90;;;;;;5103707;28;20035;-66
2023/03/25 09:43:59;;;;;;;23.33;3.53;;;9.40;99.90;;;;;;5109577;28;20115;-64
2023/03/25 09:46:25;;;;;;;20.75;3.30;;;9.60;99.90;;;;;;5074850;28;20043;-66
2023/03/25 09:48:50;;;;;;;22.42;3.70;;;9.70;99.90;;;;;;5096401;28;20042;-69
2023/03/25 09:51:32;;;;;;;23.90;4.50;;;9.90;99.90;;;;;;5108835;28;20042;-65
2023/03/25 09:54:03;;;;;;;17.63;3.25;;;9.90;99.90;;;;;;5109588;28;20039;-67
2023/03/25 09:56:34;;;;;;;21.15;3.70;;;10.00;99.90;;;;;;5113003;28;20434;-66
2023/03/25 09:59:22;;;;;;;26.48;4.63;;;10.20;99.90;;;;;;5119197;28;20051;-65
2023/03/25 10:02:08;;;;;;;22.00;5.63;;;10.30;99.90;;;;;;5109102;28;20392;-66
2023/03/25 10:04:56;;;;;;;22.33;5.25;;;10.30;99.90;;;;;;5101486;28;20668;-66
2023/03/25 10:07:56;;;;;;;22.45;4.45;;;10.30;99.90;;;;;;5104197;28;20039;-68
2023/03/25 10:10:31;;;;;;;21.23;3.95;;;10.20;99.90;;;;;;5106173;28;20119;-63
2023/03/25 10:13:11;;;;;;;22.08;4.15;;;10.30;99.90;;;;;;5103911;28;20509;-66
2023/03/25 10:15:53;;;;;;;23.10;4.82;;;10.20;99.90;;;;;;5107781;28;20047;-63
2023/03/25 10:18:56;;;;;;;22.50;4.15;;;10.20;99.90;;;;;;5106445;28;20081;-71
2023/03/25 10:21:34;;;;;;;25.13;4.55;;;10.10;99.90;;;;;;5106660;28;20055;-64
2023/03/25 10:24:35;;;;;;;21.95;4.22;;;10.10;99.90;;;;;;5097170;28;20259;-63
2023/03/25 10:27:29;;;;;;;20.35;3.90;;;10.30;99.90;;;;;;5111874;27;20046;-64
2023/03/25 10:30:23;;;;;;;18.45;3.90;;;10.30;99.90;;;;;;5109222;27;20039;-65
2023/03/25 10:32:55;;;;;;;15.68;3.25;;;10.30;99.90;;;;;;5127894;27;20445;-64
2023/03/25 10:35:27;;;;;;;19.45;4.35;;;10.40;99.90;;;;;;5121830;27;20456;-66
2023/03/25 10:37:59;;;;;;;18.15;3.10;;;10.30;99.90;;;;;;5109874;27;20095;-65
2023/03/25 10:40:33;;;;;;;21.90;3.90;;;10.30;99.90;;;;;;5112973;27;20046;-64
2023/03/25 10:43:22;;;;;;;24.42;3.70;;;10.30;99.90;;;;;;5087875;27;20081;-63
2023/03/25 10:45:50;;;;;;;19.48;4.32;;;10.40;99.90;;;;;;5118999;27;20035;-66
2023/03/25 10:48:28;;;;;;;17.30;3.45;;;10.40;99.90;;;;;;5110688;27;20138;-67
2023/03/25 10:51:09;;;;;;;23.98;3.80;;;10.60;99.90;;;;;;5111342;27;20130;-66
2023/03/25 10:53:36;;;;;;;23.30;3.58;;;10.60;99.90;;;;;;5111465;27;20027;-69
2023/03/25 10:56:16;;;;;;;21.85;3.65;;;10.60;99.90;;;;;;5113713;27;20035;-67
2023/03/25 10:58:46;;;;;;;20.27;4.15;;;10.60;99.90;;;;;;5106958;27;20043;-66
2023/03/25 11:01:16;;;;;;;22.77;3.55;;;10.60;99.90;;;;;;5106741;27;20034;-67
2023/03/25 11:03:44;;;;;;;21.52;3.50;;;10.60;99.90;;;;;;5123851;27;20039;-66
2023/03/25 11:06:23;;;;;;;21.52;4.80;;;10.70;99.90;;;;;;5095662;27;20038;-65
2023/03/25 11:09:06;;;;;;;20.40;3.97;;;10.70;99.90;;;;;;5106006;27;20434;-68
2023/03/25 11:11:34;;;;;;;20.92;4.10;;;10.70;99.90;;;;;;5112980;27;20046;-68
2023/03/25 11:14:01;;;;;;;23.50;4.20;;;10.80;99.90;;;;;;5104883;27;20466;-66
2023/03/25 11:16:35;;;;;;;20.45;3.92;;;10.90;99.90;;;;;;5102369;27;20035;-65
2023/03/25 11:19:03;;;;;;;21.25;4.13;;;11.00;99.90;;;;;;5104670;27;20055;-68
2023/03/25 11:21:34;;;;;;;19.25;3.33;;;11.20;99.90;;;;;;5109955;27;20047;-66
2023/03/25 11:24:00;;;;;;;21.20;3.60;;;11.20;99.90;;;;;;5102889;27;20046;-66
2023/03/25 11:26:32;;;;;;;22.20;3.83;;;11.30;99.90;;;;;;5104942;27;20043;-65
2023/03/25 11:29:11;;;;;;;20.60;4.72;;;11.40;99.90;;;;;;5106192;27;20431;-67
2023/03/25 11:31:37;;;;;;;19.85;3.47;;;11.40;99.90;;;;;;5106205;27;20072;-68
2023/03/25 11:34:09;;;;;;;15.65;3.42;;;11.30;99.90;;;;;;5105933;27;20074;-66
2023/03/25 11:36:38;;;;;;;11.27;2.90;;;11.20;99.90;;;;;;5110228;27;20180;-66
2023/03/25 11:39:23;;;;;;;18.73;2.72;;;11.20;99.90;;;;;;5106280;27;20397;-66
2023/03/25 11:41:50;;;;;;;20.75;4.93;;;11.30;99.90;;;;;;5092996;27;20478;-65
2023/03/25 11:44:27;;;;;;;22.55;3.35;;;11.20;99.90;;;;;;5090730;27;20157;-67
2023/03/25 11:46:57;;;;;;;21.55;4.18;;;11.40;99.90;;;;;;5103940;27;20489;-69
2023/03/25 11:49:25;;;;;;;19.17;3.15;;;11.30;99.90;;;;;;5096379;27;20122;-67
2023/03/25 11:52:20;;;;;;;24.15;3.65;;;11.40;99.90;;;;;;5100859;27;20114;-67
2023/03/25 11:54:46;;;;;;;14.05;2.80;;;11.80;99.90;;;;;;5105629;27;20037;-67
2023/03/25 11:57:16;;;;;;;19.50;3.55;;;12.10;99.90;;;;;;5109184;27;20477;-66
2023/03/25 11:59:47;;;;;;;17.73;3.35;;;12.00;99.90;;;;;;5101174;27;20027;-68
2023/03/25 12:02:22;;;;;;;18.20;4.10;;;11.70;99.90;;;;;;5118220;27;20078;-66
2023/03/25 12:05:12;;;;;;;12.70;3.10;;;11.50;99.90;;;;;;5105605;27;21202;-67
2023/03/25 12:07:48;;;;;;;19.67;4.28;;;11.50;99.90;;;;;;5111836;27;20411;-69
2023/03/25 12:10:17;;;;;;;18.42;3.30;;;11.50;99.90;;;;;;5095035;27;20043;-68
2023/03/25 12:13:15;;;;;;;16.10;3.95;;;11.40;99.90;;;;;;5095209;27;20038;-67
2023/03/25 12:16:06;;;;;;;19.33;3.70;;;11.40;99.90;;;;;;5088071;27;20039;-67
2023/03/25 12:18:52;;;;;;;17.30;3.08;;;11.20;99.90;;;;;;5105159;27;20590;-66
2023/03/25 12:21:28;;;;;;;15.55;3.25;;;11.10;99.90;;;;;;5106387;27;20153;-67
2023/03/25 12:24:20;;;;;;;16.48;4.15;;;11.10;99.90;;;;;;5100179;27;20047;-69
2023/03/25 12:27:01;;;;;;;13.32;3.40;;;11.10;99.90;;;;;;5105583;27;20042;-66
2023/03/25 12:29:49;;;;;;;16.80;3.88;;;11.30;99.90;;;;;;5087452;27;20393;-66
2023/03/25 12:32:44;;;;;;;14.63;3.20;;;11.50;99.90;;;;;;5106474;27;20106;-68
2023/03/25 12:35:29;;;;;;;15.07;3.35;;;11.80;99.90;;;;;;5103428;27;20038;-66
2023/03/25 12:38:00;;;;;;;14.70;3.20;;;11.90;99.90;;;;;;5112275;27;20398;-68
2023/03/25 12:40:49;;;;;;;16.73;3.22;;;11.70;99.90;;;;;;5110705;27;20047;-67
2023/03/25 12:43:57;;;;;;;19.17;4.03;;;11.60;99.90;;;;;;5103892;27;20039;-68
2023/03/25 12:46:26;;;;;;;16.70;3.45;;;11.60;99.90;;;;;;5098888;27;20726;-66
2023/03/25 12:49:05;;;;;;;20.92;3.85;;;11.50;99.90;;;;;;5102165;27;20134;-65
2023/03/25 12:51:50;;;;;;;13.18;2.90;;;11.50;99.90;;;;;;5105310;27;20148;-67
2023/03/25 12:54:26;;;;;;;21.48;4.00;;;11.40;99.90;;;;;;5101681;27;20051;-67
2023/03/25 12:57:01;;;;;;;17.77;3.15;;;11.40;99.90;;;;;;5103609;27;20072;-66
2023/03/25 13:00:02;;;;;;;17.65;3.22;;;11.50;99.90;;;;;;5098259;27;20055;-68
2023/03/25 13:02:51;;;;;;;20.65;3.05;;;11.60;99.90;;;;;;5103240;27;20560;-66
2023/03/25 13:05:25;;;;;;;19.00;4.03;;;11.60;99.90;;;;;;5120812;27;20039;-66
2023/03/25 13:08:03;;;;;;;10.60;2.88;;;11.70;99.90;;;;;;5103261;28;20027;-67
2023/03/25 13:10:39;;;;;;;22.63;3.65;;;11.60;99.90;;;;;;5092655;27;20130;-67